sensor_id;sensor_type;location;lat;lon;timestamp;pressure;altitude;pressure_sealevel;temperature;humidity
72038;BME280;59900;50.788;12.904;2023-05-21T00:00:07;97684.19;;;16.69;72.82
72038;BME280;59900;50.788;12.904;2023-05-21T00:02:36;97687.63;;;16.69;72.39
72038;BME280;59900;50.788;12.904;2023-05-21T00:05:01;97684.38;;;16.67;72.35
72038;BME280;59900;50.788;12.904;2023-05-21T00:07:26;97683.72;;;16.60;73.02
72038;BME280;59900;50.788;12.904;2023-05-21T00:09:51;97681.16;;;16.54;72.84
72038;BME280;59900;50.788;12.904;2023-05-21T00:12:17;97681.59;;;16.51;73.19
72038;BME280;59900;50.788;12.904;2023-05-21T00:14:42;97677.56;;;16.48;73.01
72038;BME280;59900;50.788;12.904;2023-05-21T00:17:07;97666.13;;;16.48;73.03
72038;BME280;59900;50.788;12.904;2023-05-21T00:19:33;97673.63;;;16.51;73.36
72038;BME280;59900;50.788;12.904;2023-05-21T00:21:58;97667.97;;;16.47;73.41
72038;BME280;59900;50.788;12.904;2023-05-21T00:24:26;97664.75;;;16.45;73.65
72038;BME280;59900;50.788;12.904;2023-05-21T00:26:52;97659.69;;;16.44;73.51
72038;BME280;59900;50.788;12.904;2023-05-21T00:29:17;97664.19;;;16.43;73.59
72038;BME280;59900;50.788;12.904;2023-05-21T00:31:42;97658.28;;;16.41;73.45
72038;BME280;59900;50.788;12.904;2023-05-21T00:34:07;97655.41;;;16.43;73.74
72038;BME280;59900;50.788;12.904;2023-05-21T00:36:32;97662.81;;;16.41;74.04
72038;BME280;59900;50.788;12.904;2023-05-21T00:38:58;97656.69;;;16.40;73.87
72038;BME280;59900;50.788;12.904;2023-05-21T00:41:24;97651.38;;;16.40;73.56
72038;BME280;59900;50.788;12.904;2023-05-21T00:43:50;97657.81;;;16.44;73.83
72038;BME280;59900;50.788;12.904;2023-05-21T00:46:18;97652.97;;;16.41;73.94
72038;BME280;59900;50.788;12.904;2023-05-21T00:48:44;97658.75;;;16.38;74.25
72038;BME280;59900;50.788;12.904;2023-05-21T00:51:10;97648.59;;;16.35;74.46
72038;BME280;59900;50.788;12.904;2023-05-21T00:53:36;97655.88;;;16.40;74.62
72038;BME280;59900;50.788;12.904;2023-05-21T00:56:02;97653.78;;;16.42;74.09
72038;BME280;59900;50.788;12.904;2023-05-21T00:58:28;97655.63;;;16.41;74.18
72038;BME280;59900;50.788;12.904;2023-05-21T01:00:54;97656.22;;;16.43;74.03
72038;BME280;59900;50.788;12.904;2023-05-21T01:03:22;97652.75;;;16.43;74.18
72038;BME280;59900;50.788;12.904;2023-05-21T01:05:50;97651.94;;;16.42;74.11
72038;BME280;59900;50.788;12.904;2023-05-21T01:08:18;97645.38;;;16.45;74.21
72038;BME280;59900;50.788;12.904;2023-05-21T01:10:45;97645.03;;;16.41;73.92
72038;BME280;59900;50.788;12.904;2023-05-21T01:13:11;97643.63;;;16.39;74.51
72038;BME280;59900;50.788;12.904;2023-05-21T01:15:36;97642.72;;;16.33;74.56
72038;BME280;59900;50.788;12.904;2023-05-21T01:18:03;97634.06;;;16.26;74.81
72038;BME280;59900;50.788;12.904;2023-05-21T01:20:28;97637.84;;;16.18;74.82
72038;BME280;59900;50.788;12.904;2023-05-21T01:22:56;97634.19;;;16.19;75.11
72038;BME280;59900;50.788;12.904;2023-05-21T01:25:22;97627.25;;;16.18;75.40
72038;BME280;59900;50.788;12.904;2023-05-21T01:27:48;97629.34;;;16.16;75.37
72038;BME280;59900;50.788;12.904;2023-05-21T01:30:15;97625.63;;;16.17;75.29
72038;BME280;59900;50.788;12.904;2023-05-21T01:32:55;97628.97;;;16.13;75.32
72038;BME280;59900;50.788;12.904;2023-05-21T01:35:27;97623.91;;;16.11;75.23
72038;BME280;59900;50.788;12.904;2023-05-21T01:38:17;97613.53;;;16.10;75.44
72038;BME280;59900;50.788;12.904;2023-05-21T01:40:47;97616.06;;;16.05;75.49
72038;BME280;59900;50.788;12.904;2023-05-21T01:43:17;97619.38;;;16.00;75.93
72038;BME280;59900;50.788;12.904;2023-05-21T01:45:43;97615.34;;;15.98;76.04
72038;BME280;59900;50.788;12.904;2023-05-21T01:48:10;97620.66;;;15.98;75.74
72038;BME280;59900;50.788;12.904;2023-05-21T01:50:38;97611.31;;;15.95;76.16
72038;BME280;59900;50.788;12.904;2023-05-21T01:53:04;97615.44;;;15.91;76.03
72038;BME280;59900;50.788;12.904;2023-05-21T01:55:30;97613.50;;;15.87;75.99
72038;BME280;59900;50.788;12.904;2023-05-21T01:57:56;97615.19;;;15.81;76.57
72038;BME280;59900;50.788;12.904;2023-05-21T02:00:23;97618.66;;;15.82;76.74
72038;BME280;59900;50.788;12.904;2023-05-21T02:02:50;97619.34;;;15.77;76.98
72038;BME280;59900;50.788;12.904;2023-05-21T02:05:15;97619.34;;;15.77;77.08
72038;BME280;59900;50.788;12.904;2023-05-21T02:07:41;97618.19;;;15.73;76.85
72038;BME280;59900;50.788;12.904;2023-05-21T02:10:08;97612.06;;;15.73;77.19
72038;BME280;59900;50.788;12.904;2023-05-21T02:12:33;97607.22;;;15.69;76.82
72038;BME280;59900;50.788;12.904;2023-05-21T02:14:58;97612.75;;;15.68;77.26
72038;BME280;59900;50.788;12.904;2023-05-21T02:17:24;97613.34;;;15.70;77.17
72038;BME280;59900;50.788;12.904;2023-05-21T02:19:50;97616.31;;;15.74;76.99
72038;BME280;59900;50.788;12.904;2023-05-21T02:22:15;97610.00;;;15.75;77.40
72038;BME280;59900;50.788;12.904;2023-05-21T02:24:40;97609.19;;;15.74;77.44
72038;BME280;59900;50.788;12.904;2023-05-21T02:27:06;97604.13;;;15.73;77.30
72038;BME280;59900;50.788;12.904;2023-05-21T02:29:35;97603.41;;;15.65;77.21
72038;BME280;59900;50.788;12.904;2023-05-21T02:32:00;97602.38;;;15.66;77.45
72038;BME280;59900;50.788;12.904;2023-05-21T02:34:26;97599.00;;;15.59;77.15
72038;BME280;59900;50.788;12.904;2023-05-21T02:36:51;97596.59;;;15.58;77.66
72038;BME280;59900;50.788;12.904;2023-05-21T02:39:17;97598.53;;;15.51;78.29
72038;BME280;59900;50.788;12.904;2023-05-21T02:41:44;97590.88;;;15.43;78.09
72038;BME280;59900;50.788;12.904;2023-05-21T02:44:09;97588.44;;;15.41;78.69
72038;BME280;59900;50.788;12.904;2023-05-21T02:46:35;97590.13;;;15.36;78.51
72038;BME280;59900;50.788;12.904;2023-05-21T02:49:00;97586.34;;;15.32;78.92
72038;BME280;59900;50.788;12.904;2023-05-21T02:51:25;97587.25;;;15.26;79.45
72038;BME280;59900;50.788;12.904;2023-05-21T02:53:51;97587.75;;;15.16;80.07
72038;BME280;59900;50.788;12.904;2023-05-21T02:56:16;97591.22;;;15.17;79.71
72038;BME280;59900;50.788;12.904;2023-05-21T02:58:42;97589.16;;;15.19;79.92
72038;BME280;59900;50.788;12.904;2023-05-21T03:01:07;97584.09;;;15.17;79.72
72038;BME280;59900;50.788;12.904;2023-05-21T03:03:33;97575.91;;;15.19;79.83
72038;BME280;59900;50.788;12.904;2023-05-21T03:05:58;97584.91;;;15.18;79.91
72038;BME280;59900;50.788;12.904;2023-05-21T03:08:23;97583.66;;;15.20;79.82
72038;BME280;59900;50.788;12.904;2023-05-21T03:10:48;97573.25;;;15.19;79.85
72038;BME280;59900;50.788;12.904;2023-05-21T03:13:14;97580.19;;;15.20;79.62
72038;BME280;59900;50.788;12.904;2023-05-21T03:15:39;97571.88;;;15.16;80.09
72038;BME280;59900;50.788;12.904;2023-05-21T03:18:04;97577.63;;;15.13;79.90
72038;BME280;59900;50.788;12.904;2023-05-21T03:20:30;97567.28;;;15.11;80.37
72038;BME280;59900;50.788;12.904;2023-05-21T03:22:56;97575.66;;;15.08;80.30
72038;BME280;59900;50.788;12.904;2023-05-21T03:25:21;97571.59;;;15.06;80.26
72038;BME280;59900;50.788;12.904;2023-05-21T03:27:49;97573.91;;;15.02;80.11
72038;BME280;59900;50.788;12.904;2023-05-21T03:30:14;97576.31;;;15.04;80.35
72038;BME280;59900;50.788;12.904;2023-05-21T03:32:40;97584.25;;;15.04;80.09
72038;BME280;59900;50.788;12.904;2023-05-21T03:35:05;97581.72;;;15.09;80.76
72038;BME280;59900;50.788;12.904;2023-05-21T03:37:31;97586.00;;;15.10;80.55
72038;BME280;59900;50.788;12.904;2023-05-21T03:39:56;97591.31;;;15.10;80.38
72038;BME280;59900;50.788;12.904;2023-05-21T03:42:21;97594.53;;;15.12;80.47
72038;BME280;59900;50.788;12.904;2023-05-21T03:44:46;97590.84;;;15.13;80.13
72038;BME280;59900;50.788;12.904;2023-05-21T03:47:12;97596.16;;;15.13;80.18
72038;BME280;59900;50.788;12.904;2023-05-21T03:49:37;97602.00;;;15.15;80.24
72038;BME280;59900;50.788;12.904;2023-05-21T03:52:02;97598.72;;;15.20;79.98
72038;BME280;59900;50.788;12.904;2023-05-21T03:54:27;97592.97;;;15.23;80.11
72038;BME280;59900;50.788;12.904;2023-05-21T03:56:53;97593.44;;;15.20;80.05
72038;BME280;59900;50.788;12.904;2023-05-21T03:59:18;97594.25;;;15.20;80.04
72038;BME280;59900;50.788;12.904;2023-05-21T04:01:43;97596.66;;;15.22;79.98
72038;BME280;59900;50.788;12.904;2023-05-21T04:04:09;97599.66;;;15.25;79.83
72038;BME280;59900;50.788;12.904;2023-05-21T04:06:34;97599.44;;;15.27;79.88
72038;BME280;59900;50.788;12.904;2023-05-21T04:09:00;97606.13;;;15.29;79.42
72038;BME280;59900;50.788;12.904;2023-05-21T04:11:26;97597.16;;;15.30;79.81
72038;BME280;59900;50.788;12.904;2023-05-21T04:13:51;97604.88;;;15.32;79.47
72038;BME280;59900;50.788;12.904;2023-05-21T04:16:16;97608.91;;;15.34;79.44
72038;BME280;59900;50.788;12.904;2023-05-21T04:18:43;97609.72;;;15.35;79.77
72038;BME280;59900;50.788;12.904;2023-05-21T04:21:08;97612.00;;;15.31;80.03
72038;BME280;59900;50.788;12.904;2023-05-21T04:23:33;97603.81;;;15.33;80.05
72038;BME280;59900;50.788;12.904;2023-05-21T04:26:00;97611.00;;;15.32;80.08
72038;BME280;59900;50.788;12.904;2023-05-21T04:28:26;97616.63;;;15.36;80.33
72038;BME280;59900;50.788;12.904;2023-05-21T04:30:53;97610.88;;;15.39;80.17
72038;BME280;59900;50.788;12.904;2023-05-21T04:33:20;97611.25;;;15.42;79.82
72038;BME280;59900;50.788;12.904;2023-05-21T04:35:45;97608.03;;;15.40;79.98
72038;BME280;59900;50.788;12.904;2023-05-21T04:38:13;97610.78;;;15.45;79.90
72038;BME280;59900;50.788;12.904;2023-05-21T04:40:50;97611.56;;;15.52;79.79
72038;BME280;59900;50.788;12.904;2023-05-21T04:43:15;97606.59;;;15.56;79.45
72038;BME280;59900;50.788;12.904;2023-05-21T04:45:41;97615.50;;;15.61;80.02
72038;BME280;59900;50.788;12.904;2023-05-21T04:48:07;97618.16;;;15.61;79.52
72038;BME280;59900;50.788;12.904;2023-05-21T04:50:33;97619.28;;;15.65;79.99
72038;BME280;59900;50.788;12.904;2023-05-21T04:52:58;97619.09;;;15.67;79.76
72038;BME280;59900;50.788;12.904;2023-05-21T04:55:23;97612.97;;;15.66;80.04
72038;BME280;59900;50.788;12.904;2023-05-21T04:57:48;97611.81;;;15.62;80.10
72038;BME280;59900;50.788;12.904;2023-05-21T05:00:15;97610.31;;;15.66;79.76
72038;BME280;59900;50.788;12.904;2023-05-21T05:02:40;97611.25;;;15.72;79.85
72038;BME280;59900;50.788;12.904;2023-05-21T05:05:05;97611.97;;;15.79;80.19
72038;BME280;59900;50.788;12.904;2023-05-21T05:07:31;97613.69;;;15.85;79.63
72038;BME280;59900;50.788;12.904;2023-05-21T05:09:56;97610.13;;;15.91;79.07
72038;BME280;59900;50.788;12.904;2023-05-21T05:12:21;97614.88;;;16.01;78.89
72038;BME280;59900;50.788;12.904;2023-05-21T05:14:46;97612.13;;;16.07;78.22
72038;BME280;59900;50.788;12.904;2023-05-21T05:17:12;97609.38;;;16.14;77.54
72038;BME280;59900;50.788;12.904;2023-05-21T05:19:40;97607.66;;;16.19;77.97
72038;BME280;59900;50.788;12.904;2023-05-21T05:22:06;97613.66;;;16.26;77.61
72038;BME280;59900;50.788;12.904;2023-05-21T05:24:31;97612.16;;;16.31;77.59
72038;BME280;59900;50.788;12.904;2023-05-21T05:26:56;97619.19;;;16.37;77.90
72038;BME280;59900;50.788;12.904;2023-05-21T05:29:21;97615.28;;;16.39;77.95
72038;BME280;59900;50.788;12.904;2023-05-21T05:31:47;97619.91;;;16.44;77.34
72038;BME280;59900;50.788;12.904;2023-05-21T05:34:12;97610.44;;;16.48;78.37
72038;BME280;59900;50.788;12.904;2023-05-21T05:36:37;97617.00;;;16.45;78.34
72038;BME280;59900;50.788;12.904;2023-05-21T05:39:02;97617.47;;;16.42;78.53
72038;BME280;59900;50.788;12.904;2023-05-21T05:41:28;97625.22;;;16.44;78.82
72038;BME280;59900;50.788;12.904;2023-05-21T05:43:53;97616.91;;;16.40;79.56
72038;BME280;59900;50.788;12.904;2023-05-21T05:46:18;97616.31;;;16.38;79.71
72038;BME280;59900;50.788;12.904;2023-05-21T05:48:44;97617.34;;;16.37;79.64
72038;BME280;59900;50.788;12.904;2023-05-21T05:51:09;97612.63;;;16.39;80.04
72038;BME280;59900;50.788;12.904;2023-05-21T05:53:36;97608.69;;;16.42;80.13
72038;BME280;59900;50.788;12.904;2023-05-21T05:56:01;97610.22;;;16.49;79.93
72038;BME280;59900;50.788;12.904;2023-05-21T05:58:26;97612.75;;;16.56;79.66
72038;BME280;59900;50.788;12.904;2023-05-21T06:00:51;97610.56;;;16.64;79.71
72038;BME280;59900;50.788;12.904;2023-05-21T06:03:17;97609.63;;;16.70;79.71
72038;BME280;59900;50.788;12.904;2023-05-21T06:05:42;97602.34;;;16.77;79.77
72038;BME280;59900;50.788;12.904;2023-05-21T06:08:08;97597.16;;;16.83;80.04
72038;BME280;59900;50.788;12.904;2023-05-21T06:10:33;97594.63;;;16.88;79.32
72038;BME280;59900;50.788;12.904;2023-05-21T06:12:58;97600.94;;;16.98;79.39
72038;BME280;59900;50.788;12.904;2023-05-21T06:15:23;97592.13;;;17.09;79.22
72038;BME280;59900;50.788;12.904;2023-05-21T06:17:49;97593.38;;;17.18;79.55
72038;BME280;59900;50.788;12.904;2023-05-21T06:20:14;97589.63;;;17.31;79.45
72038;BME280;59900;50.788;12.904;2023-05-21T06:22:40;97596.53;;;17.44;78.58
72038;BME280;59900;50.788;12.904;2023-05-21T06:25:06;97593.59;;;17.57;78.30
72038;BME280;59900;50.788;12.904;2023-05-21T06:27:32;97591.22;;;17.72;77.48
72038;BME280;59900;50.788;12.904;2023-05-21T06:29:57;97584.88;;;17.89;76.21
72038;BME280;59900;50.788;12.904;2023-05-21T06:32:23;97585.25;;;17.98;75.13
72038;BME280;59900;50.788;12.904;2023-05-21T06:34:49;97585.75;;;18.12;74.07
72038;BME280;59900;50.788;12.904;2023-05-21T06:37:18;97585.91;;;18.22;74.30
72038;BME280;59900;50.788;12.904;2023-05-21T06:39:43;97585.25;;;18.31;72.92
72038;BME280;59900;50.788;12.904;2023-05-21T06:42:09;97589.41;;;18.44;71.71
72038;BME280;59900;50.788;12.904;2023-05-21T06:44:34;97578.22;;;18.59;72.68
72038;BME280;59900;50.788;12.904;2023-05-21T06:46:59;97584.50;;;18.69;71.13
72038;BME280;59900;50.788;12.904;2023-05-21T06:49:25;97586.72;;;18.77;70.35
72038;BME280;59900;50.788;12.904;2023-05-21T06:51:50;97587.09;;;18.86;70.37
72038;BME280;59900;50.788;12.904;2023-05-21T06:54:15;97587.78;;;18.98;68.60
72038;BME280;59900;50.788;12.904;2023-05-21T06:56:41;97590.31;;;19.10;68.61
72038;BME280;59900;50.788;12.904;2023-05-21T06:59:06;97591.81;;;19.22;67.22
72038;BME280;59900;50.788;12.904;2023-05-21T07:01:31;97599.03;;;19.27;67.04
72038;BME280;59900;50.788;12.904;2023-05-21T07:03:58;97588.44;;;19.32;66.57
72038;BME280;59900;50.788;12.904;2023-05-21T07:06:23;97590.72;;;19.40;67.32
72038;BME280;59900;50.788;12.904;2023-05-21T07:08:48;97596.41;;;19.48;67.52
72038;BME280;59900;50.788;12.904;2023-05-21T07:11:14;97593.78;;;19.53;68.05
72038;BME280;59900;50.788;12.904;2023-05-21T07:13:39;97597.84;;;19.61;68.06
72038;BME280;59900;50.788;12.904;2023-05-21T07:16:04;97589.09;;;19.66;67.11
72038;BME280;59900;50.788;12.904;2023-05-21T07:18:30;97598.16;;;19.65;66.30
72038;BME280;59900;50.788;12.904;2023-05-21T07:20:55;97599.59;;;19.77;65.51
72038;BME280;59900;50.788;12.904;2023-05-21T07:23:21;97601.00;;;19.85;64.97
72038;BME280;59900;50.788;12.904;2023-05-21T07:25:46;97594.31;;;19.82;65.67
72038;BME280;59900;50.788;12.904;2023-05-21T07:28:11;97603.16;;;19.88;65.17
72038;BME280;59900;50.788;12.904;2023-05-21T07:30:37;97593.50;;;19.82;64.50
72038;BME280;59900;50.788;12.904;2023-05-21T07:33:02;97591.69;;;19.87;64.61
72038;BME280;59900;50.788;12.904;2023-05-21T07:35:27;97593.00;;;19.85;65.44
72038;BME280;59900;50.788;12.904;2023-05-21T07:37:53;97590.63;;;19.88;64.33
72038;BME280;59900;50.788;12.904;2023-05-21T07:40:18;97599.97;;;19.91;63.73
72038;BME280;59900;50.788;12.904;2023-05-21T07:42:43;97590.66;;;19.93;63.43
72038;BME280;59900;50.788;12.904;2023-05-21T07:45:09;97585.59;;;19.92;64.27
72038;BME280;59900;50.788;12.904;2023-05-21T07:47:34;97589.38;;;19.96;64.36
72038;BME280;59900;50.788;12.904;2023-05-21T07:49:59;97598.44;;;19.95;64.06
72038;BME280;59900;50.788;12.904;2023-05-21T07:52:25;97596.28;;;19.92;64.61
72038;BME280;59900;50.788;12.904;2023-05-21T07:54:50;97594.97;;;19.94;65.47
72038;BME280;59900;50.788;12.904;2023-05-21T07:57:15;97598.72;;;19.98;65.97
72038;BME280;59900;50.788;12.904;2023-05-21T07:59:41;97598.78;;;20.03;66.09
72038;BME280;59900;50.788;12.904;2023-05-21T08:02:06;97601.75;;;20.07;65.67
72038;BME280;59900;50.788;12.904;2023-05-21T08:04:31;97601.16;;;20.05;64.54
72038;BME280;59900;50.788;12.904;2023-05-21T08:06:57;97604.66;;;20.05;64.32
72038;BME280;59900;50.788;12.904;2023-05-21T08:09:22;97605.97;;;20.03;64.14
72038;BME280;59900;50.788;12.904;2023-05-21T08:11:47;97594.25;;;20.04;62.91
72038;BME280;59900;50.788;12.904;2023-05-21T08:14:13;97599.88;;;20.07;62.72
72038;BME280;59900;50.788;12.904;2023-05-21T08:16:38;97605.25;;;20.12;62.87
72038;BME280;59900;50.788;12.904;2023-05-21T08:19:03;97615.16;;;20.17;62.56
72038;BME280;59900;50.788;12.904;2023-05-21T08:21:28;97611.22;;;20.25;62.99
72038;BME280;59900;50.788;12.904;2023-05-21T08:23:54;97613.19;;;20.34;62.00
72038;BME280;59900;50.788;12.904;2023-05-21T08:26:19;97616.94;;;20.38;62.93
72038;BME280;59900;50.788;12.904;2023-05-21T08:28:45;97616.72;;;20.45;62.69
72038;BME280;59900;50.788;12.904;2023-05-21T08:31:10;97613.28;;;20.49;62.23
72038;BME280;59900;50.788;12.904;2023-05-21T08:33:36;97620.78;;;20.52;62.10
72038;BME280;59900;50.788;12.904;2023-05-21T08:36:06;97614.19;;;20.65;61.45
72038;BME280;59900;50.788;12.904;2023-05-21T08:38:31;97614.81;;;20.77;60.45
72038;BME280;59900;50.788;12.904;2023-05-21T08:40:58;97616.22;;;20.90;60.62
72038;BME280;59900;50.788;12.904;2023-05-21T08:43:27;97615.69;;;20.93;59.46
72038;BME280;59900;50.788;12.904;2023-05-21T08:45:54;97618.38;;;20.93;59.66
72038;BME280;59900;50.788;12.904;2023-05-21T08:48:21;97618.88;;;20.90;59.53
72038;BME280;59900;50.788;12.904;2023-05-21T08:50:48;97618.63;;;20.96;59.17
72038;BME280;59900;50.788;12.904;2023-05-21T08:53:14;97616.00;;;21.01;59.42
72038;BME280;59900;50.788;12.904;2023-05-21T08:55:40;97616.56;;;21.08;58.44
72038;BME280;59900;50.788;12.904;2023-05-21T08:58:06;97617.16;;;21.15;58.27
72038;BME280;59900;50.788;12.904;2023-05-21T09:00:31;97615.56;;;21.19;57.91
72038;BME280;59900;50.788;12.904;2023-05-21T09:02:58;97615.88;;;21.28;56.55
72038;BME280;59900;50.788;12.904;2023-05-21T09:05:25;97612.41;;;21.33;57.09
72038;BME280;59900;50.788;12.904;2023-05-21T09:08:03;97608.13;;;21.32;56.78
72038;BME280;59900;50.788;12.904;2023-05-21T09:10:38;97600.94;;;21.42;55.98
72038;BME280;59900;50.788;12.904;2023-05-21T09:13:04;97598.28;;;21.47;56.38
72038;BME280;59900;50.788;12.904;2023-05-21T09:15:29;97610.84;;;21.52;55.78
72038;BME280;59900;50.788;12.904;2023-05-21T09:17:55;97607.94;;;21.58;55.98
72038;BME280;59900;50.788;12.904;2023-05-21T09:20:24;97606.59;;;21.56;54.65
72038;BME280;59900;50.788;12.904;2023-05-21T09:22:50;97601.53;;;21.59;55.38
72038;BME280;59900;50.788;12.904;2023-05-21T09:25:19;97598.84;;;21.59;55.38
72038;BME280;59900;50.788;12.904;2023-05-21T09:27:45;97605.00;;;21.60;55.60
72038;BME280;59900;50.788;12.904;2023-05-21T09:30:15;97606.06;;;21.59;55.10
72038;BME280;59900;50.788;12.904;2023-05-21T09:32:42;97603.66;;;21.67;55.68
72038;BME280;59900;50.788;12.904;2023-05-21T09:35:14;97601.84;;;21.78;55.14
72038;BME280;59900;50.788;12.904;2023-05-21T09:37:40;97596.47;;;21.83;53.70
72038;BME280;59900;50.788;12.904;2023-05-21T09:40:11;97603.97;;;21.86;53.51
72038;BME280;59900;50.788;12.904;2023-05-21T09:42:43;97608.81;;;21.89;53.82
72038;BME280;59900;50.788;12.904;2023-05-21T09:45:09;97604.03;;;22.01;52.74
72038;BME280;59900;50.788;12.904;2023-05-21T09:47:42;97603.47;;;22.14;52.33
72038;BME280;59900;50.788;12.904;2023-05-21T09:50:09;97596.25;;;22.30;51.58
72038;BME280;59900;50.788;12.904;2023-05-21T09:52:36;97598.66;;;22.37;51.55
72038;BME280;59900;50.788;12.904;2023-05-21T09:55:03;97597.56;;;22.53;52.02
72038;BME280;59900;50.788;12.904;2023-05-21T09:57:28;97592.72;;;22.60;51.92
72038;BME280;59900;50.788;12.904;2023-05-21T09:59:53;97589.78;;;22.66;50.86
72038;BME280;59900;50.788;12.904;2023-05-21T10:02:22;97589.00;;;22.66;48.18
72038;BME280;59900;50.788;12.904;2023-05-21T10:04:50;97598.38;;;22.68;48.02
72038;BME280;59900;50.788;12.904;2023-05-21T10:07:20;97593.78;;;22.74;48.30
72038;BME280;59900;50.788;12.904;2023-05-21T10:09:54;97590.84;;;22.80;47.73
72038;BME280;59900;50.788;12.904;2023-05-21T10:12:22;97598.56;;;22.87;48.23
72038;BME280;59900;50.788;12.904;2023-05-21T10:14:50;97588.38;;;22.94;46.78
72038;BME280;59900;50.788;12.904;2023-05-21T10:17:18;97593.69;;;22.99;49.18
72038;BME280;59900;50.788;12.904;2023-05-21T10:19:45;97592.03;;;23.13;47.33
72038;BME280;59900;50.788;12.904;2023-05-21T10:22:12;97580.50;;;23.18;46.42
72038;BME280;59900;50.788;12.904;2023-05-21T10:24:38;97585.03;;;23.22;46.05
72038;BME280;59900;50.788;12.904;2023-05-21T10:27:04;97583.66;;;23.30;44.67
72038;BME280;59900;50.788;12.904;2023-05-21T10:29:31;97584.44;;;23.40;44.91
72038;BME280;59900;50.788;12.904;2023-05-21T10:31:56;97589.50;;;23.47;44.54
72038;BME280;59900;50.788;12.904;2023-05-21T10:34:22;97581.41;;;23.52;45.30
72038;BME280;59900;50.788;12.904;2023-05-21T10:36:49;97574.69;;;23.60;45.26
72038;BME280;59900;50.788;12.904;2023-05-21T10:39:15;97573.03;;;23.64;44.02
72038;BME280;59900;50.788;12.904;2023-05-21T10:41:50;97572.97;;;23.74;43.08
72038;BME280;59900;50.788;12.904;2023-05-21T10:44:57;97576.66;;;23.83;42.56
72038;BME280;59900;50.788;12.904;2023-05-21T10:50:49;97568.00;;;23.91;42.79
72038;BME280;59900;50.788;12.904;2023-05-21T10:56:38;97570.63;;;24.01;41.86
72038;BME280;59900;50.788;12.904;2023-05-21T10:59:30;97568.44;;;24.03;42.04
72038;BME280;59900;50.788;12.904;2023-05-21T11:02:00;97558.44;;;24.14;42.78
72038;BME280;59900;50.788;12.904;2023-05-21T11:04:27;97553.25;;;24.22;41.20
72038;BME280;59900;50.788;12.904;2023-05-21T11:06:53;97561.81;;;24.29;41.15
72038;BME280;59900;50.788;12.904;2023-05-21T11:09:18;97561.69;;;24.39;41.63
72038;BME280;59900;50.788;12.904;2023-05-21T11:11:51;97556.16;;;24.54;41.68
72038;BME280;59900;50.788;12.904;2023-05-21T11:14:45;97557.13;;;24.69;42.59
72038;BME280;59900;50.788;12.904;2023-05-21T11:17:37;97557.50;;;24.86;43.50
72038;BME280;59900;50.788;12.904;2023-05-21T11:20:03;97551.69;;;24.97;43.79
72038;BME280;59900;50.788;12.904;2023-05-21T11:22:33;97552.19;;;24.99;43.57
72038;BME280;59900;50.788;12.904;2023-05-21T11:25:00;97545.00;;;24.95;43.67
72038;BME280;59900;50.788;12.904;2023-05-21T11:27:36;97555.69;;;25.00;43.03
72038;BME280;59900;50.788;12.904;2023-05-21T11:32:28;97559.31;;;24.90;42.34
72038;BME280;59900;50.788;12.904;2023-05-21T11:34:58;97561.75;;;24.87;43.11
72038;BME280;59900;50.788;12.904;2023-05-21T11:37:25;97550.38;;;24.95;42.94
72038;BME280;59900;50.788;12.904;2023-05-21T11:39:53;97549.97;;;25.06;43.08
72038;BME280;59900;50.788;12.904;2023-05-21T11:44:55;97553.53;;;25.39;41.25
72038;BME280;59900;50.788;12.904;2023-05-21T11:47:24;97552.91;;;25.47;40.58
72038;BME280;59900;50.788;12.904;2023-05-21T11:49:53;97543.91;;;25.57;41.34
72038;BME280;59900;50.788;12.904;2023-05-21T11:52:18;97560.13;;;25.71;41.15
72038;BME280;59900;50.788;12.904;2023-05-21T11:54:52;97547.34;;;25.63;39.46
72038;BME280;59900;50.788;12.904;2023-05-21T11:57:23;97551.63;;;25.63;40.29
72038;BME280;59900;50.788;12.904;2023-05-21T11:59:49;97548.56;;;25.70;39.25
72038;BME280;59900;50.788;12.904;2023-05-21T12:02:19;97549.88;;;25.73;39.80
72038;BME280;59900;50.788;12.904;2023-05-21T12:04:49;97549.72;;;25.83;39.29
72038;BME280;59900;50.788;12.904;2023-05-21T12:07:16;97549.06;;;25.72;38.85
72038;BME280;59900;50.788;12.904;2023-05-21T12:09:43;97545.50;;;25.77;38.78
72038;BME280;59900;50.788;12.904;2023-05-21T12:12:11;97545.66;;;25.85;37.99
72038;BME280;59900;50.788;12.904;2023-05-21T12:14:38;97531.81;;;25.92;38.01
72038;BME280;59900;50.788;12.904;2023-05-21T12:17:04;97520.97;;;26.10;37.72
72038;BME280;59900;50.788;12.904;2023-05-21T12:19:31;97533.41;;;26.25;38.32
72038;BME280;59900;50.788;12.904;2023-05-21T12:22:01;97526.56;;;26.33;38.50
72038;BME280;59900;50.788;12.904;2023-05-21T12:24:27;97521.00;;;26.56;38.14
72038;BME280;59900;50.788;12.904;2023-05-21T12:26:52;97528.69;;;26.77;38.02
72038;BME280;59900;50.788;12.904;2023-05-21T12:29:19;97530.78;;;26.93;36.39
72038;BME280;59900;50.788;12.904;2023-05-21T12:31:48;97525.88;;;27.09;35.04
72038;BME280;59900;50.788;12.904;2023-05-21T12:34:13;97533.84;;;27.27;34.77
72038;BME280;59900;50.788;12.904;2023-05-21T12:36:41;97518.63;;;27.45;35.01
72038;BME280;59900;50.788;12.904;2023-05-21T12:39:10;97524.69;;;27.51;34.65
72038;BME280;59900;50.788;12.904;2023-05-21T12:41:35;97517.41;;;27.51;33.84
72038;BME280;59900;50.788;12.904;2023-05-21T12:44:01;97520.03;;;27.43;34.61
72038;BME280;59900;50.788;12.904;2023-05-21T12:46:26;97517.84;;;27.67;34.73
72038;BME280;59900;50.788;12.904;2023-05-21T12:48:52;97514.91;;;27.99;34.51
72038;BME280;59900;50.788;12.904;2023-05-21T12:51:19;97512.66;;;28.15;34.21
72038;BME280;59900;50.788;12.904;2023-05-21T12:53:45;97509.59;;;28.39;33.05
72038;BME280;59900;50.788;12.904;2023-05-21T12:56:11;97515.09;;;28.56;33.52
72038;BME280;59900;50.788;12.904;2023-05-21T12:58:37;97509.41;;;28.66;33.31